sensor_id;sensor_type;location;lat;lon;timestamp;P1;durP1;ratioP1;P2;durP2;ratioP2
64903;SDS011;51401;48.882;12.598;2023-04-08T00:00:43;10.57;;;7.10;;
64903;SDS011;51401;48.882;12.598;2023-04-08T00:03:09;12.18;;;7.38;;
64903;SDS011;51401;48.882;12.598;2023-04-08T00:05:34;10.45;;;7.85;;
64903;SDS011;51401;48.882;12.598;2023-04-08T00:07:59;12.05;;;7.78;;
64903;SDS011;51401;48.882;12.598;2023-04-08T00:10:24;10.63;;;7.63;;
64903;SDS011;51401;48.882;12.598;2023-04-08T00:12:50;12.52;;;7.82;;
64903;SDS011;51401;48.882;12.598;2023-04-08T00:15:16;10.57;;;8.18;;
64903;SDS011;51401;48.882;12.598;2023-04-08T00:17:42;10.40;;;8.18;;
64903;SDS011;51401;48.882;12.598;2023-04-08T00:20:07;11.48;;;7.93;;
64903;SDS011;51401;48.882;12.598;2023-04-08T00:22:33;11.77;;;7.55;;
64903;SDS011;51401;48.882;12.598;2023-04-08T00:25:00;12.38;;;7.80;;
64903;SDS011;51401;48.882;12.598;2023-04-08T00:27:26;11.48;;;8.02;;
64903;SDS011;51401;48.882;12.598;2023-04-08T00:29:52;12.50;;;7.57;;
64903;SDS011;51401;48.882;12.598;2023-04-08T00:32:17;10.48;;;7.78;;
64903;SDS011;51401;48.882;12.598;2023-04-08T00:34:42;12.00;;;8.82;;
64903;SDS011;51401;48.882;12.598;2023-04-08T00:37:08;12.50;;;7.88;;
64903;SDS011;51401;48.882;12.598;2023-04-08T00:39:33;10.23;;;7.82;;
64903;SDS011;51401;48.882;12.598;2023-04-08T00:41:59;12.00;;;7.80;;
64903;SDS011;51401;48.882;12.598;2023-04-08T00:44:25;11.23;;;7.60;;
64903;SDS011;51401;48.882;12.598;2023-04-08T00:46:51;11.75;;;7.80;;
64903;SDS011;51401;48.882;12.598;2023-04-08T00:49:16;14.60;;;8.52;;
64903;SDS011;51401;48.882;12.598;2023-04-08T00:51:42;14.30;;;8.80;;
64903;SDS011;51401;48.882;12.598;2023-04-08T00:54:08;10.40;;;8.18;;
64903;SDS011;51401;48.882;12.598;2023-04-08T00:56:33;12.15;;;8.55;;
64903;SDS011;51401;48.882;12.598;2023-04-08T00:58:59;11.60;;;7.82;;
64903;SDS011;51401;48.882;12.598;2023-04-08T01:01:27;11.57;;;8.30;;
64903;SDS011;51401;48.882;12.598;2023-04-08T01:04:05;15.07;;;8.57;;
64903;SDS011;51401;48.882;12.598;2023-04-08T01:06:58;11.43;;;8.20;;
64903;SDS011;51401;48.882;12.598;2023-04-08T01:09:31;13.77;;;8.38;;
64903;SDS011;51401;48.882;12.598;2023-04-08T01:11:57;11.20;;;8.57;;
64903;SDS011;51401;48.882;12.598;2023-04-08T01:14:29;12.75;;;8.57;;
64903;SDS011;51401;48.882;12.598;2023-04-08T01:16:58;12.25;;;8.10;;
64903;SDS011;51401;48.882;12.598;2023-04-08T01:19:26;14.60;;;8.40;;
64903;SDS011;51401;48.882;12.598;2023-04-08T01:21:54;11.63;;;8.30;;
64903;SDS011;51401;48.882;12.598;2023-04-08T01:24:28;13.10;;;8.40;;
64903;SDS011;51401;48.882;12.598;2023-04-08T01:26:57;12.18;;;8.27;;
64903;SDS011;51401;48.882;12.598;2023-04-08T01:29:25;13.85;;;8.60;;
64903;SDS011;51401;48.882;12.598;2023-04-08T01:31:52;14.35;;;8.65;;
64903;SDS011;51401;48.882;12.598;2023-04-08T01:34:18;12.13;;;8.50;;
64903;SDS011;51401;48.882;12.598;2023-04-08T01:36:45;14.60;;;8.98;;
64903;SDS011;51401;48.882;12.598;2023-04-08T01:39:13;13.10;;;8.73;;
64903;SDS011;51401;48.882;12.598;2023-04-08T01:41:41;11.38;;;7.97;;
64903;SDS011;51401;48.882;12.598;2023-04-08T01:44:07;13.75;;;8.75;;
64903;SDS011;51401;48.882;12.598;2023-04-08T01:46:34;14.07;;;8.93;;
64903;SDS011;51401;48.882;12.598;2023-04-08T01:48:59;13.55;;;8.07;;
64903;SDS011;51401;48.882;12.598;2023-04-08T01:51:25;14.32;;;8.07;;
64903;SDS011;51401;48.882;12.598;2023-04-08T01:53:53;14.75;;;8.90;;
64903;SDS011;51401;48.882;12.598;2023-04-08T01:56:19;12.77;;;8.43;;
64903;SDS011;51401;48.882;12.598;2023-04-08T01:58:47;14.32;;;8.82;;
64903;SDS011;51401;48.882;12.598;2023-04-08T02:01:17;13.18;;;8.52;;
64903;SDS011;51401;48.882;12.598;2023-04-08T02:03:45;14.40;;;9.18;;
64903;SDS011;51401;48.882;12.598;2023-04-08T02:06:11;13.65;;;8.45;;
64903;SDS011;51401;48.882;12.598;2023-04-08T02:08:37;13.30;;;8.77;;
64903;SDS011;51401;48.882;12.598;2023-04-08T02:11:02;12.90;;;8.02;;
64903;SDS011;51401;48.882;12.598;2023-04-08T02:13:28;15.02;;;8.57;;
64903;SDS011;51401;48.882;12.598;2023-04-08T02:16:18;12.07;;;8.10;;
64903;SDS011;51401;48.882;12.598;2023-04-08T02:18:48;13.65;;;7.97;;
64903;SDS011;51401;48.882;12.598;2023-04-08T02:21:20;12.20;;;8.52;;
64903;SDS011;51401;48.882;12.598;2023-04-08T02:26:17;12.43;;;8.48;;
64903;SDS011;51401;48.882;12.598;2023-04-08T02:28:43;15.98;;;8.23;;
64903;SDS011;51401;48.882;12.598;2023-04-08T02:31:10;12.80;;;8.77;;
64903;SDS011;51401;48.882;12.598;2023-04-08T02:33:39;12.55;;;9.18;;
64903;SDS011;51401;48.882;12.598;2023-04-08T02:36:06;11.80;;;8.23;;
64903;SDS011;51401;48.882;12.598;2023-04-08T02:38:32;16.30;;;9.18;;
64903;SDS011;51401;48.882;12.598;2023-04-08T02:40:57;11.02;;;7.93;;
64903;SDS011;51401;48.882;12.598;2023-04-08T02:43:23;11.02;;;7.72;;
64903;SDS011;51401;48.882;12.598;2023-04-08T02:45:55;13.57;;;8.40;;
64903;SDS011;51401;48.882;12.598;2023-04-08T02:48:21;15.50;;;8.73;;
64903;SDS011;51401;48.882;12.598;2023-04-08T02:50:46;14.75;;;9.00;;
64903;SDS011;51401;48.882;12.598;2023-04-08T02:53:11;13.88;;;8.57;;
64903;SDS011;51401;48.882;12.598;2023-04-08T02:55:36;12.67;;;8.57;;
64903;SDS011;51401;48.882;12.598;2023-04-08T02:58:03;11.85;;;8.02;;
64903;SDS011;51401;48.882;12.598;2023-04-08T03:00:28;12.30;;;7.90;;
64903;SDS011;51401;48.882;12.598;2023-04-08T03:02:54;12.90;;;8.20;;
64903;SDS011;51401;48.882;12.598;2023-04-08T03:05:19;11.82;;;8.40;;
64903;SDS011;51401;48.882;12.598;2023-04-08T03:07:45;12.27;;;8.43;;
64903;SDS011;51401;48.882;12.598;2023-04-08T03:10:10;11.15;;;8.35;;
64903;SDS011;51401;48.882;12.598;2023-04-08T03:12:36;9.57;;;7.05;;
64903;SDS011;51401;48.882;12.598;2023-04-08T03:15:01;12.00;;;8.02;;
64903;SDS011;51401;48.882;12.598;2023-04-08T03:17:27;10.35;;;7.95;;
64903;SDS011;51401;48.882;12.598;2023-04-08T03:19:52;10.70;;;7.68;;
64903;SDS011;51401;48.882;12.598;2023-04-08T03:22:18;11.77;;;7.85;;
64903;SDS011;51401;48.882;12.598;2023-04-08T03:24:43;12.63;;;7.70;;
64903;SDS011;51401;48.882;12.598;2023-04-08T03:27:08;11.43;;;8.00;;
64903;SDS011;51401;48.882;12.598;2023-04-08T03:29:33;12.15;;;7.93;;
64903;SDS011;51401;48.882;12.598;2023-04-08T03:31:59;12.27;;;7.95;;
64903;SDS011;51401;48.882;12.598;2023-04-08T03:34:24;12.82;;;7.80;;
64903;SDS011;51401;48.882;12.598;2023-04-08T03:36:49;9.23;;;6.80;;
64903;SDS011;51401;48.882;12.598;2023-04-08T03:39:15;11.50;;;8.23;;
64903;SDS011;51401;48.882;12.598;2023-04-08T03:41:41;9.35;;;7.05;;
64903;SDS011;51401;48.882;12.598;2023-04-08T03:44:06;12.73;;;7.93;;
64903;SDS011;51401;48.882;12.598;2023-04-08T03:46:31;11.27;;;8.40;;
64903;SDS011;51401;48.882;12.598;2023-04-08T03:48:56;10.93;;;7.68;;
64903;SDS011;51401;48.882;12.598;2023-04-08T03:51:22;9.63;;;6.85;;
64903;SDS011;51401;48.882;12.598;2023-04-08T03:53:47;10.98;;;7.30;;
64903;SDS011;51401;48.882;12.598;2023-04-08T03:56:13;8.68;;;7.55;;
64903;SDS011;51401;48.882;12.598;2023-04-08T03:58:38;11.05;;;7.68;;
64903;SDS011;51401;48.882;12.598;2023-04-08T04:01:04;10.90;;;7.57;;
64903;SDS011;51401;48.882;12.598;2023-04-08T04:03:29;10.85;;;7.15;;
64903;SDS011;51401;48.882;12.598;2023-04-08T04:05:54;11.07;;;7.28;;
64903;SDS011;51401;48.882;12.598;2023-04-08T04:08:19;10.02;;;7.65;;
64903;SDS011;51401;48.882;12.598;2023-04-08T04:10:45;11.95;;;7.72;;
64903;SDS011;51401;48.882;12.598;2023-04-08T04:13:10;11.68;;;7.70;;
64903;SDS011;51401;48.882;12.598;2023-04-08T04:15:39;10.50;;;7.72;;
64903;SDS011;51401;48.882;12.598;2023-04-08T04:18:05;9.20;;;7.30;;
64903;SDS011;51401;48.882;12.598;2023-04-08T04:20:31;11.98;;;8.57;;
64903;SDS011;51401;48.882;12.598;2023-04-08T04:22:56;9.57;;;7.68;;
64903;SDS011;51401;48.882;12.598;2023-04-08T04:25:22;11.85;;;8.55;;
64903;SDS011;51401;48.882;12.598;2023-04-08T04:27:47;10.00;;;7.50;;
64903;SDS011;51401;48.882;12.598;2023-04-08T04:30:13;13.82;;;7.93;;
64903;SDS011;51401;48.882;12.598;2023-04-08T04:32:40;12.02;;;8.43;;
64903;SDS011;51401;48.882;12.598;2023-04-08T04:35:06;10.73;;;7.40;;
64903;SDS011;51401;48.882;12.598;2023-04-08T04:37:33;12.63;;;8.15;;
64903;SDS011;51401;48.882;12.598;2023-04-08T04:39:58;12.70;;;7.67;;
64903;SDS011;51401;48.882;12.598;2023-04-08T04:42:23;10.63;;;7.60;;
64903;SDS011;51401;48.882;12.598;2023-04-08T04:44:49;12.05;;;8.05;;
64903;SDS011;51401;48.882;12.598;2023-04-08T04:47:14;10.73;;;7.55;;
64903;SDS011;51401;48.882;12.598;2023-04-08T04:49:40;10.18;;;7.53;;
64903;SDS011;51401;48.882;12.598;2023-04-08T04:52:06;11.88;;;8.00;;
64903;SDS011;51401;48.882;12.598;2023-04-08T04:54:31;9.48;;;7.07;;
64903;SDS011;51401;48.882;12.598;2023-04-08T04:56:56;10.75;;;8.05;;
64903;SDS011;51401;48.882;12.598;2023-04-08T04:59:22;12.13;;;8.52;;
64903;SDS011;51401;48.882;12.598;2023-04-08T05:01:47;12.05;;;8.10;;
64903;SDS011;51401;48.882;12.598;2023-04-08T05:04:12;10.43;;;7.75;;
64903;SDS011;51401;48.882;12.598;2023-04-08T05:06:38;12.77;;;8.32;;
64903;SDS011;51401;48.882;12.598;2023-04-08T05:09:03;12.63;;;8.23;;
64903;SDS011;51401;48.882;12.598;2023-04-08T05:11:28;13.10;;;8.07;;
64903;SDS011;51401;48.882;12.598;2023-04-08T05:13:53;11.43;;;7.93;;
64903;SDS011;51401;48.882;12.598;2023-04-08T05:16:18;10.40;;;7.68;;
64903;SDS011;51401;48.882;12.598;2023-04-08T05:18:44;13.55;;;9.20;;
64903;SDS011;51401;48.882;12.598;2023-04-08T05:21:09;10.60;;;7.40;;
64903;SDS011;51401;48.882;12.598;2023-04-08T05:23:35;9.65;;;7.95;;
64903;SDS011;51401;48.882;12.598;2023-04-08T05:26:00;10.30;;;7.47;;
64903;SDS011;51401;48.882;12.598;2023-04-08T05:28:25;11.90;;;7.82;;
64903;SDS011;51401;48.882;12.598;2023-04-08T05:30:51;9.50;;;7.15;;
64903;SDS011;51401;48.882;12.598;2023-04-08T05:33:17;11.98;;;8.48;;
64903;SDS011;51401;48.882;12.598;2023-04-08T05:35:43;11.68;;;7.97;;
64903;SDS011;51401;48.882;12.598;2023-04-08T05:38:08;10.23;;;7.78;;
64903;SDS011;51401;48.882;12.598;2023-04-08T05:40:33;11.10;;;7.72;;
64903;SDS011;51401;48.882;12.598;2023-04-08T05:42:59;14.68;;;9.05;;
64903;SDS011;51401;48.882;12.598;2023-04-08T05:45:24;12.93;;;8.45;;
64903;SDS011;51401;48.882;12.598;2023-04-08T05:47:49;12.68;;;8.35;;
64903;SDS011;51401;48.882;12.598;2023-04-08T05:50:15;13.27;;;8.93;;
64903;SDS011;51401;48.882;12.598;2023-04-08T05:52:41;15.15;;;8.88;;
64903;SDS011;51401;48.882;12.598;2023-04-08T05:55:08;12.82;;;8.80;;
64903;SDS011;51401;48.882;12.598;2023-04-08T05:57:33;13.20;;;8.65;;
64903;SDS011;51401;48.882;12.598;2023-04-08T05:59:58;19.13;;;9.27;;
64903;SDS011;51401;48.882;12.598;2023-04-08T06:02:24;14.50;;;9.52;;
64903;SDS011;51401;48.882;12.598;2023-04-08T06:04:49;13.57;;;10.27;;
64903;SDS011;51401;48.882;12.598;2023-04-08T06:07:14;13.10;;;9.77;;
64903;SDS011;51401;48.882;12.598;2023-04-08T06:09:40;16.10;;;10.02;;
64903;SDS011;51401;48.882;12.598;2023-04-08T06:12:05;17.08;;;11.10;;
64903;SDS011;51401;48.882;12.598;2023-04-08T06:14:30;17.33;;;10.50;;
64903;SDS011;51401;48.882;12.598;2023-04-08T06:16:55;17.08;;;10.52;;
64903;SDS011;51401;48.882;12.598;2023-04-08T06:19:21;14.30;;;10.38;;
64903;SDS011;51401;48.882;12.598;2023-04-08T06:21:46;16.60;;;10.52;;
64903;SDS011;51401;48.882;12.598;2023-04-08T06:24:12;15.20;;;10.25;;
64903;SDS011;51401;48.882;12.598;2023-04-08T06:26:37;13.65;;;10.15;;
64903;SDS011;51401;48.882;12.598;2023-04-08T06:29:02;16.15;;;11.13;;
64903;SDS011;51401;48.882;12.598;2023-04-08T06:31:29;16.75;;;11.40;;
64903;SDS011;51401;48.882;12.598;2023-04-08T06:33:54;21.50;;;12.93;;
64903;SDS011;51401;48.882;12.598;2023-04-08T06:36:20;21.27;;;13.93;;
64903;SDS011;51401;48.882;12.598;2023-04-08T06:38:45;22.60;;;13.43;;
64903;SDS011;51401;48.882;12.598;2023-04-08T06:41:10;20.95;;;13.93;;
64903;SDS011;51401;48.882;12.598;2023-04-08T06:43:36;20.02;;;12.52;;
64903;SDS011;51401;48.882;12.598;2023-04-08T06:46:01;18.10;;;11.73;;
64903;SDS011;51401;48.882;12.598;2023-04-08T06:48:27;20.95;;;12.75;;
64903;SDS011;51401;48.882;12.598;2023-04-08T06:50:57;20.23;;;13.00;;
64903;SDS011;51401;48.882;12.598;2023-04-08T06:53:24;17.00;;;12.27;;
64903;SDS011;51401;48.882;12.598;2023-04-08T06:55:50;20.05;;;12.65;;
64903;SDS011;51401;48.882;12.598;2023-04-08T06:58:15;19.60;;;12.38;;
64903;SDS011;51401;48.882;12.598;2023-04-08T07:00:41;18.92;;;12.68;;
64903;SDS011;51401;48.882;12.598;2023-04-08T07:03:06;19.13;;;12.18;;
64903;SDS011;51401;48.882;12.598;2023-04-08T07:05:34;18.85;;;11.63;;
64903;SDS011;51401;48.882;12.598;2023-04-08T07:07:59;16.67;;;11.50;;
64903;SDS011;51401;48.882;12.598;2023-04-08T07:10:25;14.85;;;10.82;;
64903;SDS011;51401;48.882;12.598;2023-04-08T07:12:50;16.63;;;11.45;;
64903;SDS011;51401;48.882;12.598;2023-04-08T07:15:16;16.27;;;10.75;;
64903;SDS011;51401;48.882;12.598;2023-04-08T07:17:42;13.75;;;10.07;;
64903;SDS011;51401;48.882;12.598;2023-04-08T07:20:07;15.80;;;10.15;;
64903;SDS011;51401;48.882;12.598;2023-04-08T07:22:33;12.80;;;9.48;;
64903;SDS011;51401;48.882;12.598;2023-04-08T07:24:58;12.45;;;9.57;;
64903;SDS011;51401;48.882;12.598;2023-04-08T07:27:24;14.13;;;9.67;;
64903;SDS011;51401;48.882;12.598;2023-04-08T07:29:52;11.25;;;8.82;;
64903;SDS011;51401;48.882;12.598;2023-04-08T07:32:18;15.77;;;11.15;;
64903;SDS011;51401;48.882;12.598;2023-04-08T07:34:44;13.27;;;9.82;;
64903;SDS011;51401;48.882;12.598;2023-04-08T07:37:09;15.02;;;10.00;;
64903;SDS011;51401;48.882;12.598;2023-04-08T07:39:34;13.23;;;9.50;;
64903;SDS011;51401;48.882;12.598;2023-04-08T07:42:00;14.50;;;10.05;;
64903;SDS011;51401;48.882;12.598;2023-04-08T07:44:25;13.15;;;8.98;;
64903;SDS011;51401;48.882;12.598;2023-04-08T07:46:50;11.73;;;8.67;;
64903;SDS011;51401;48.882;12.598;2023-04-08T07:49:16;11.20;;;8.82;;
64903;SDS011;51401;48.882;12.598;2023-04-08T07:51:41;12.30;;;8.25;;
64903;SDS011;51401;48.882;12.598;2023-04-08T07:54:07;10.05;;;7.97;;
64903;SDS011;51401;48.882;12.598;2023-04-08T07:56:32;9.15;;;7.43;;
64903;SDS011;51401;48.882;12.598;2023-04-08T07:58:57;10.48;;;7.22;;
64903;SDS011;51401;48.882;12.598;2023-04-08T08:01:23;9.45;;;7.07;;
64903;SDS011;51401;48.882;12.598;2023-04-08T08:03:48;11.38;;;7.82;;
64903;SDS011;51401;48.882;12.598;2023-04-08T08:06:15;9.23;;;7.13;;
64903;SDS011;51401;48.882;12.598;2023-04-08T08:08:41;9.70;;;7.05;;
64903;SDS011;51401;48.882;12.598;2023-04-08T08:11:06;10.70;;;7.15;;
64903;SDS011;51401;48.882;12.598;2023-04-08T08:13:32;12.13;;;7.93;;
64903;SDS011;51401;48.882;12.598;2023-04-08T08:15:57;9.63;;;7.40;;
64903;SDS011;51401;48.882;12.598;2023-04-08T08:18:22;8.50;;;6.93;;
64903;SDS011;51401;48.882;12.598;2023-04-08T08:20:48;8.70;;;6.80;;
64903;SDS011;51401;48.882;12.598;2023-04-08T08:23:13;10.00;;;7.97;;
64903;SDS011;51401;48.882;12.598;2023-04-08T08:25:38;8.65;;;6.85;;
64903;SDS011;51401;48.882;12.598;2023-04-08T08:28:04;10.82;;;7.47;;
64903;SDS011;51401;48.882;12.598;2023-04-08T08:30:29;9.13;;;7.32;;
64903;SDS011;51401;48.882;12.598;2023-04-08T08:32:54;10.73;;;7.10;;
64903;SDS011;51401;48.882;12.598;2023-04-08T08:35:22;10.05;;;7.80;;
64903;SDS011;51401;48.882;12.598;2023-04-08T08:37:48;10.48;;;7.60;;
64903;SDS011;51401;48.882;12.598;2023-04-08T08:40:13;12.45;;;8.00;;
64903;SDS011;51401;48.882;12.598;2023-04-08T08:42:39;11.40;;;8.82;;
64903;SDS011;51401;48.882;12.598;2023-04-08T08:45:05;13.02;;;9.25;;
64903;SDS011;51401;48.882;12.598;2023-04-08T08:47:32;10.80;;;8.02;;
64903;SDS011;51401;48.882;12.598;2023-04-08T08:49:57;9.75;;;7.72;;
64903;SDS011;51401;48.882;12.598;2023-04-08T08:52:22;12.02;;;8.13;;
64903;SDS011;51401;48.882;12.598;2023-04-08T08:54:48;11.48;;;7.95;;
64903;SDS011;51401;48.882;12.598;2023-04-08T08:57:21;10.20;;;7.95;;
64903;SDS011;51401;48.882;12.598;2023-04-08T08:59:47;10.07;;;7.77;;
64903;SDS011;51401;48.882;12.598;2023-04-08T09:02:22;10.45;;;7.40;;
64903;SDS011;51401;48.882;12.598;2023-04-08T09:04:56;10.32;;;7.00;;
64903;SDS011;51401;48.882;12.598;2023-04-08T09:07:23;13.50;;;8.95;;
64903;SDS011;51401;48.882;12.598;2023-04-08T09:09:51;13.82;;;8.43;;
64903;SDS011;51401;48.882;12.598;2023-04-08T09:12:17;10.85;;;8.38;;
64903;SDS011;51401;48.882;12.598;2023-04-08T09:14:43;11.25;;;8.25;;
64903;SDS011;51401;48.882;12.598;2023-04-08T09:17:08;16.13;;;10.48;;
64903;SDS011;51401;48.882;12.598;2023-04-08T09:19:33;13.70;;;9.93;;
64903;SDS011;51401;48.882;12.598;2023-04-08T09:22:11;12.68;;;9.23;;
64903;SDS011;51401;48.882;12.598;2023-04-08T09:24:36;13.68;;;9.82;;
64903;SDS011;51401;48.882;12.598;2023-04-08T09:27:02;12.77;;;9.57;;
64903;SDS011;51401;48.882;12.598;2023-04-08T09:29:28;12.70;;;9.80;;
64903;SDS011;51401;48.882;12.598;2023-04-08T09:32:00;12.90;;;9.35;;
64903;SDS011;51401;48.882;12.598;2023-04-08T09:34:37;11.23;;;9.13;;
64903;SDS011;51401;48.882;12.598;2023-04-08T09:37:06;14.98;;;9.60;;
64903;SDS011;51401;48.882;12.598;2023-04-08T09:39:35;12.63;;;9.45;;
64903;SDS011;51401;48.882;12.598;2023-04-08T09:42:00;14.43;;;9.77;;
64903;SDS011;51401;48.882;12.598;2023-04-08T09:44:32;13.02;;;8.85;;
64903;SDS011;51401;48.882;12.598;2023-04-08T09:47:17;12.10;;;9.20;;
64903;SDS011;51401;48.882;12.598;2023-04-08T09:49:54;10.95;;;8.57;;
64903;SDS011;51401;48.882;12.598;2023-04-08T09:52:31;13.05;;;8.77;;
64903;SDS011;51401;48.882;12.598;2023-04-08T10:00:23;11.80;;;8.30;;
64903;SDS011;51401;48.882;12.598;2023-04-08T10:03:09;10.10;;;8.05;;
64903;SDS011;51401;48.882;12.598;2023-04-08T10:05:40;11.77;;;7.70;;
64903;SDS011;51401;48.882;12.598;2023-04-08T10:08:06;11.05;;;8.05;;
64903;SDS011;51401;48.882;12.598;2023-04-08T10:10:35;10.65;;;7.55;;
64903;SDS011;51401;48.882;12.598;2023-04-08T10:13:03;10.98;;;7.93;;
64903;SDS011;51401;48.882;12.598;2023-04-08T10:15:53;10.52;;;8.02;;
64903;SDS011;51401;48.882;12.598;2023-04-08T10:18:36;9.50;;;7.20;;
64903;SDS011;51401;48.882;12.598;2023-04-08T10:21:02;9.38;;;7.28;;
64903;SDS011;51401;48.882;12.598;2023-04-08T10:23:51;8.35;;;6.95;;
64903;SDS011;51401;48.882;12.598;2023-04-08T10:26:30;9.70;;;6.75;;
64903;SDS011;51401;48.882;12.598;2023-04-08T10:31:46;7.60;;;5.95;;
64903;SDS011;51401;48.882;12.598;2023-04-08T10:34:16;8.40;;;6.45;;
64903;SDS011;51401;48.882;12.598;2023-04-08T10:36:43;8.18;;;5.78;;
64903;SDS011;51401;48.882;12.598;2023-04-08T10:39:09;8.70;;;6.35;;
64903;SDS011;51401;48.882;12.598;2023-04-08T10:41:34;10.57;;;6.03;;
64903;SDS011;51401;48.882;12.598;2023-04-08T10:44:29;6.82;;;5.22;;
64903;SDS011;51401;48.882;12.598;2023-04-08T10:46:54;7.38;;;5.47;;
64903;SDS011;51401;48.882;12.598;2023-04-08T10:52:06;7.50;;;5.68;;
64903;SDS011;51401;48.882;12.598;2023-04-08T10:54:32;8.73;;;5.85;;
64903;SDS011;51401;48.882;12.598;2023-04-08T10:56:57;9.95;;;6.30;;
64903;SDS011;51401;48.882;12.598;2023-04-08T10:59:30;8.38;;;5.55;;
64903;SDS011;51401;48.882;12.598;2023-04-08T11:02:17;7.20;;;6.22;;
64903;SDS011;51401;48.882;12.598;2023-04-08T11:04:57;7.53;;;6.30;;
64903;SDS011;51401;48.882;12.598;2023-04-08T11:07:24;5.88;;;4.78;;
64903;SDS011;51401;48.882;12.598;2023-04-08T11:09:49;7.78;;;5.55;;
64903;SDS011;51401;48.882;12.598;2023-04-08T11:12:15;5.70;;;4.93;;
64903;SDS011;51401;48.882;12.598;2023-04-08T11:14:43;7.40;;;5.82;;
64903;SDS011;51401;48.882;12.598;2023-04-08T11:17:08;8.40;;;5.90;;
64903;SDS011;51401;48.882;12.598;2023-04-08T11:19:34;6.72;;;5.63;;
64903;SDS011;51401;48.882;12.598;2023-04-08T11:22:01;7.70;;;5.38;;
64903;SDS011;51401;48.882;12.598;2023-04-08T11:24:26;7.35;;;5.82;;
64903;SDS011;51401;48.882;12.598;2023-04-08T11:26:52;6.40;;;5.30;;
64903;SDS011;51401;48.882;12.598;2023-04-08T11:29:18;7.18;;;5.65;;
64903;SDS011;51401;48.882;12.598;2023-04-08T11:31:45;6.97;;;5.75;;
64903;SDS011;51401;48.882;12.598;2023-04-08T11:34:12;6.78;;;5.32;;
64903;SDS011;51401;48.882;12.598;2023-04-08T11:36:46;6.97;;;5.53;;
64903;SDS011;51401;48.882;12.598;2023-04-08T11:39:11;6.50;;;5.50;;
64903;SDS011;51401;48.882;12.598;2023-04-08T11:41:37;8.27;;;5.50;;
64903;SDS011;51401;48.882;12.598;2023-04-08T11:44:04;6.55;;;5.60;;
64903;SDS011;51401;48.882;12.598;2023-04-08T11:46:31;7.50;;;5.85;;
64903;SDS011;51401;48.882;12.598;2023-04-08T11:49:06;8.18;;;5.97;;
64903;SDS011;51401;48.882;12.598;2023-04-08T11:51:33;7.15;;;5.63;;
64903;SDS011;51401;48.882;12.598;2023-04-08T11:53:59;8.77;;;6.20;;
64903;SDS011;51401;48.882;12.598;2023-04-08T11:56:28;7.10;;;5.72;;
64903;SDS011;51401;48.882;12.598;2023-04-08T11:58:54;8.88;;;6.07;;
64903;SDS011;51401;48.882;12.598;2023-04-08T12:01:20;7.18;;;5.63;;
64903;SDS011;51401;48.882;12.598;2023-04-08T12:06:20;8.07;;;6.53;;
64903;SDS011;51401;48.882;12.598;2023-04-08T12:08:45;7.65;;;5.72;;
64903;SDS011;51401;48.882;12.598;2023-04-08T12:11:12;6.90;;;5.60;;
64903;SDS011;51401;48.882;12.598;2023-04-08T12:13:39;8.05;;;5.80;;
64903;SDS011;51401;48.882;12.598;2023-04-08T12:16:05;9.23;;;5.88;;
64903;SDS011;51401;48.882;12.598;2023-04-08T12:18:30;7.25;;;5.43;;
64903;SDS011;51401;48.882;12.598;2023-04-08T12:20:56;7.65;;;5.95;;
64903;SDS011;51401;48.882;12.598;2023-04-08T12:23:27;7.85;;;5.85;;
64903;SDS011;51401;48.882;12.598;2023-04-08T12:26:37;6.50;;;5.45;;
64903;SDS011;51401;48.882;12.598;2023-04-08T12:29:02;7.53;;;5.10;;
64903;SDS011;51401;48.882;12.598;2023-04-08T12:31:28;7.72;;;5.50;;
64903;SDS011;51401;48.882;12.598;2023-04-08T12:33:53;6.95;;;5.05;;
64903;SDS011;51401;48.882;12.598;2023-04-08T12:36:18;6.18;;;4.38;;
64903;SDS011;51401;48.882;12.598;2023-04-08T12:38:43;6.00;;;4.83;;
64903;SDS011;51401;48.882;12.598;2023-04-08T12:41:12;5.82;;;4.47;;
64903;SDS011;51401;48.882;12.598;2023-04-08T12:43:37;6.55;;;4.78;;
64903;SDS011;51401;48.882;12.598;2023-04-08T12:46:03;6.90;;;5.18;;
64903;SDS011;51401;48.882;12.598;2023-04-08T12:48:28;6.32;;;4.68;;
64903;SDS011;51401;48.882;12.598;2023-04-08T12:50:54;6.68;;;5.03;;
64903;SDS011;51401;48.882;12.598;2023-04-08T12:53:25;5.93;;;4.90;;
64903;SDS011;51401;48.882;12.598;2023-04-08T12:55:53;5.65;;;4.90;;
64903;SDS011;51401;48.882;12.598;2023-04-08T12:58:30;4.93;;;3.88;;
64903;SDS011;51401;48.882;12.598;2023-04-08T13:00:55;5.82;;;4.82;;
64903;SDS011;51401;48.882;12.598;2023-04-08T13:03:20;6.63;;;4.95;;
64903;SDS011;51401;48.882;12.598;2023-04-08T13:05:49;7.00;;;5.05;;
64903;SDS011;51401;48.882;12.598;2023-04-08T13:08:14;7.28;;;5.90;;
64903;SDS011;51401;48.882;12.598;2023-04-08T13:10:40;6.07;;;4.78;;
64903;SDS011;51401;48.882;12.598;2023-04-08T13:13:06;6.38;;;5.32;;
64903;SDS011;51401;48.882;12.598;2023-04-08T13:15:32;7.57;;;5.15;;
64903;SDS011;51401;48.882;12.598;2023-04-08T13:17:57;7.70;;;5.20;;
64903;SDS011;51401;48.882;12.598;2023-04-08T13:20:22;5.82;;;4.90;;
64903;SDS011;51401;48.882;12.598;2023-04-08T13:22:50;5.85;;;4.90;;
64903;SDS011;51401;48.882;12.598;2023-04-08T13:25:18;7.05;;;5.25;;
64903;SDS011;51401;48.882;12.598;2023-04-08T13:27:43;7.47;;;5.35;;
64903;SDS011;51401;48.882;12.598;2023-04-08T13:30:09;8.20;;;5.53;;
64903;SDS011;51401;48.882;12.598;2023-04-08T13:32:34;7.00;;;4.85;;
64903;SDS011;51401;48.882;12.598;2023-04-08T13:35:00;6.75;;;5.10;;
64903;SDS011;51401;48.882;12.598;2023-04-08T13:37:25;8.23;;;5.38;;
64903;SDS011;51401;48.882;12.598;2023-04-08T13:39:51;8.20;;;5.78;;
64903;SDS011;51401;48.882;12.598;2023-04-08T13:42:16;10.10;;;6.47;;
64903;SDS011;51401;48.882;12.598;2023-04-08T13:44:45;7.95;;;6.20;;
64903;SDS011;51401;48.882;12.598;2023-04-08T13:47:10;6.68;;;4.80;;
64903;SDS011;51401;48.882;12.598;2023-04-08T13:49:42;9.18;;;5.78;;
64903;SDS011;51401;48.882;12.598;2023-04-08T13:52:07;6.95;;;5.55;;
64903;SDS011;51401;48.882;12.598;2023-04-08T13:54:32;7.50;;;5.40;;
64903;SDS011;51401;48.882;12.598;2023-04-08T13:56:58;7.13;;;5.15;;
64903;SDS011;51401;48.882;12.598;2023-04-08T13:59:23;7.72;;;5.93;;
64903;SDS011;51401;48.882;12.598;2023-04-08T14:01:49;6.68;;;5.05;;
64903;SDS011;51401;48.882;12.598;2023-04-08T14:04:21;8.95;;;6.07;;
64903;SDS011;51401;48.882;12.598;2023-04-08T14:06:47;8.90;;;6.43;;
64903;SDS011;51401;48.882;12.598;2023-04-08T14:09:18;6.82;;;5.30;;
64903;SDS011;51401;48.882;12.598;2023-04-08T14:11:44;7.32;;;5.93;;
64903;SDS011;51401;48.882;12.598;2023-04-08T14:14:28;7.07;;;5.55;;
64903;SDS011;51401;48.882;12.598;2023-04-08T14:16:53;9.00;;;5.57;;
64903;SDS011;51401;48.882;12.598;2023-04-08T14:19:19;8.20;;;5.78;;
64903;SDS011;51401;48.882;12.598;2023-04-08T14:21:46;7.97;;;6.47;;
64903;SDS011;51401;48.882;12.598;2023-04-08T14:24:12;8.75;;;6.53;;
64903;SDS011;51401;48.882;12.598;2023-04-08T14:26:38;8.77;;;5.55;;
64903;SDS011;51401;48.882;12.598;2023-04-08T14:29:04;7.40;;;6.60;;
64903;SDS011;51401;48.882;12.598;2023-04-08T14:31:39;7.82;;;6.13;;
64903;SDS011;51401;48.882;12.598;2023-04-08T14:34:04;9.13;;;6.70;;
64903;SDS011;51401;48.882;12.598;2023-04-08T14:36:29;8.93;;;7.20;;
64903;SDS011;51401;48.882;12.598;2023-04-08T14:39:06;8.68;;;6.35;;
64903;SDS011;51401;48.882;12.598;2023-04-08T14:41:32;8.73;;;6.88;;